createdAt,value
2023-03-21T00:01:42.244Z,2.58
2023-03-21T00:03:46.750Z,2.47
2023-03-21T00:05:51.855Z,2.38
2023-03-21T00:07:54.682Z,2.42
2023-03-21T00:10:08.620Z,2.35
2023-03-21T00:12:17.229Z,2.33
2023-03-21T00:14:20.217Z,2.80
2023-03-21T00:16:29.836Z,2.72
2023-03-21T00:18:36.655Z,2.58
2023-03-21T00:20:40.624Z,2.58
2023-03-21T00:22:43.761Z,2.33
2023-03-21T00:24:46.512Z,2.53
2023-03-21T00:26:49.157Z,2.35
2023-03-21T00:28:52.059Z,2.50
2023-03-21T00:30:58.837Z,2.80
2023-03-21T00:33:05.869Z,2.30
2023-03-21T00:35:51.597Z,2.42
2023-03-21T00:37:39.205Z,2.40
2023-03-21T00:39:41.885Z,2.38
2023-03-21T00:41:44.634Z,2.30
2023-03-21T00:43:47.302Z,2.97
2023-03-21T00:45:51.157Z,2.28
2023-03-21T00:47:53.852Z,2.60
2023-03-21T00:49:57.244Z,2.53
2023-03-21T00:52:14.644Z,2.58
2023-03-21T00:54:19.949Z,2.38
2023-03-21T00:56:23.253Z,2.28
2023-03-21T00:58:26.156Z,2.50
2023-03-21T01:00:28.886Z,2.20
2023-03-21T01:02:31.537Z,2.00
2023-03-21T01:04:35.395Z,2.30
2023-03-21T01:06:40.052Z,2.47
2023-03-21T01:08:52.284Z,2.20
2023-03-21T01:10:57.155Z,2.00
2023-03-21T01:13:00.229Z,2.35
2023-03-21T01:15:02.881Z,1.80
2023-03-21T01:17:06.554Z,2.30
2023-03-21T01:19:18.449Z,2.33
2023-03-21T01:21:27.699Z,2.17
2023-03-21T01:23:30.641Z,2.10
2023-03-21T01:25:33.283Z,2.13
2023-03-21T01:27:37.260Z,2.20
2023-03-21T01:29:39.877Z,2.30
2023-03-21T01:31:42.565Z,2.17
2023-03-21T01:33:46.033Z,2.08
2023-03-21T01:35:55.197Z,2.25
2023-03-21T01:38:02.871Z,2.45
2023-03-21T01:40:07.052Z,2.63
2023-03-21T01:42:13.693Z,2.10
2023-03-21T01:46:51.453Z,2.00
2023-03-21T01:49:03.391Z,2.30
2023-03-21T01:51:07.283Z,2.38
2023-03-21T01:53:10.110Z,2.70
2023-03-21T01:55:14.795Z,2.22
2023-03-21T01:57:25.861Z,2.40
2023-03-21T01:59:37.778Z,2.70
2023-03-21T02:01:42.276Z,2.50
2023-03-21T02:03:51.297Z,2.67
2023-03-21T02:06:00.248Z,2.25
2023-03-21T02:08:02.950Z,2.63
2023-03-21T02:10:09.860Z,2.70
2023-03-21T02:12:12.692Z,2.95
2023-03-21T02:14:26.759Z,2.70
2023-03-21T02:16:43.194Z,3.00
2023-03-21T02:18:56.590Z,2.50
2023-03-21T02:21:26.827Z,2.63
2023-03-21T02:24:06.250Z,2.47
2023-03-21T02:26:42.063Z,2.58
2023-03-21T02:28:50.313Z,2.45
2023-03-21T02:31:29.504Z,2.42
2023-03-21T02:34:07.687Z,2.40
2023-03-21T02:36:25.656Z,2.40
2023-03-21T02:38:38.353Z,2.42
2023-03-21T02:43:01.392Z,2.25
2023-03-21T02:45:10.379Z,2.33
2023-03-21T02:47:16.667Z,2.30
2023-03-21T02:49:26.026Z,2.60
2023-03-21T02:51:32.017Z,2.20
2023-03-21T02:53:41.348Z,2.20
2023-03-21T02:55:45.619Z,2.40
2023-03-21T02:57:52.506Z,2.60
2023-03-21T03:00:02.375Z,2.38
2023-03-21T03:02:08.285Z,2.53
2023-03-21T03:04:22.387Z,2.50
2023-03-21T03:06:30.388Z,2.38
2023-03-21T03:08:56.303Z,2.33
2023-03-21T03:11:15.426Z,2.40
2023-03-21T03:13:33.248Z,2.30
2023-03-21T03:15:45.538Z,2.47
2023-03-21T03:17:53.551Z,2.40
2023-03-21T03:20:16.397Z,2.60
2023-03-21T03:22:26.505Z,2.67
2023-03-21T03:24:34.051Z,2.40
2023-03-21T03:26:40.756Z,2.95
2023-03-21T03:31:05.495Z,2.50
2023-03-21T03:33:12.014Z,2.70
2023-03-21T03:35:17.426Z,2.28
2023-03-21T03:37:26.246Z,2.70
2023-03-21T03:39:36.651Z,2.50
2023-03-21T03:42:05.934Z,2.40
2023-03-21T03:44:07.297Z,2.58
2023-03-21T03:46:14.891Z,2.38
2023-03-21T03:48:26.156Z,2.40
2023-03-21T03:50:32.605Z,2.60
2023-03-21T03:52:50.009Z,2.40
2023-03-21T03:55:00.002Z,2.22
2023-03-21T03:57:03.466Z,2.88
2023-03-21T03:59:07.318Z,2.78
2023-03-21T04:01:10.909Z,2.35
2023-03-21T04:03:14.636Z,2.67
2023-03-21T04:05:21.207Z,2.85
2023-03-21T04:09:42.627Z,2.30
2023-03-21T04:11:47.505Z,2.92
2023-03-21T04:13:50.409Z,2.50
2023-03-21T04:15:53.048Z,2.50
2023-03-21T04:17:55.799Z,2.58
2023-03-21T04:20:10.985Z,2.60
2023-03-21T04:22:17.047Z,2.63
2023-03-21T04:24:19.691Z,2.80
2023-03-21T04:26:22.346Z,3.03
2023-03-21T04:28:26.399Z,2.47
2023-03-21T04:30:29.070Z,2.80
2023-03-21T04:32:33.892Z,2.47
2023-03-21T04:34:40.194Z,2.20
2023-03-21T04:36:45.670Z,2.70
2023-03-21T04:38:48.565Z,2.50
2023-03-21T04:40:51.342Z,2.80
2023-03-21T04:42:53.968Z,2.90
2023-03-21T04:44:57.906Z,2.75
2023-03-21T04:47:00.533Z,2.13
2023-03-21T04:49:03.775Z,2.72
2023-03-21T04:51:06.945Z,2.42
2023-03-21T04:53:09.535Z,2.60
2023-03-21T04:55:12.118Z,2.40
2023-03-21T04:57:14.875Z,2.45
2023-03-21T04:59:17.728Z,2.70
2023-03-21T05:01:21.671Z,2.92
2023-03-21T05:03:24.320Z,2.80
2023-03-21T05:05:27.040Z,2.70
2023-03-21T05:07:32.645Z,2.28
2023-03-21T05:09:35.399Z,2.60
2023-03-21T05:11:40.259Z,2.50
2023-03-21T05:13:42.873Z,2.38
2023-03-21T05:15:45.511Z,2.30
2023-03-21T05:17:49.613Z,2.45
2023-03-21T05:19:53.231Z,2.88
2023-03-21T05:21:55.854Z,2.92
2023-03-21T05:23:58.506Z,2.45
2023-03-21T05:26:01.132Z,2.60
2023-03-21T05:28:03.767Z,2.35
2023-03-21T05:30:09.352Z,2.97
2023-03-21T05:32:12.033Z,3.05
2023-03-21T05:34:16.055Z,3.15
2023-03-21T05:36:18.819Z,2.80
2023-03-21T05:38:21.829Z,2.55
2023-03-21T05:40:24.514Z,2.53
2023-03-21T05:42:27.226Z,2.55
2023-03-21T05:44:29.795Z,3.00
2023-03-21T05:46:32.453Z,2.95
2023-03-21T05:48:35.900Z,2.63
2023-03-21T05:50:41.245Z,3.05
2023-03-21T05:52:43.898Z,2.90
2023-03-21T05:54:46.507Z,2.90
2023-03-21T05:56:49.182Z,2.53
2023-03-21T05:58:51.810Z,2.70
2023-03-21T06:00:54.424Z,2.70
2023-03-21T06:02:57.087Z,2.60
2023-03-21T06:04:59.779Z,2.35
2023-03-21T06:07:03.883Z,2.85
2023-03-21T06:09:07.322Z,2.42
2023-03-21T06:11:24.194Z,3.05
2023-03-21T06:13:26.868Z,2.67
2023-03-21T06:15:29.647Z,3.03
2023-03-21T06:17:32.396Z,3.00
2023-03-21T06:19:35.026Z,2.50
2023-03-21T06:21:37.762Z,2.67
2023-03-21T06:23:41.774Z,2.65
2023-03-21T06:25:44.348Z,2.70
2023-03-21T06:27:47.009Z,2.20
2023-03-21T06:29:49.866Z,2.53
2023-03-21T06:31:52.530Z,2.30
2023-03-21T06:33:55.216Z,2.88
2023-03-21T06:35:59.708Z,2.70
2023-03-21T06:38:02.473Z,2.88
2023-03-21T06:40:08.690Z,2.67
2023-03-21T06:42:11.553Z,3.15
2023-03-21T06:44:14.235Z,3.53
2023-03-21T06:46:16.908Z,2.67
2023-03-21T06:48:19.558Z,2.90
2023-03-21T06:50:22.208Z,2.67
2023-03-21T06:52:24.877Z,2.75
2023-03-21T06:54:27.597Z,2.25
2023-03-21T06:56:31.605Z,2.72
2023-03-21T06:58:34.484Z,2.60
2023-03-21T07:00:37.213Z,2.97
2023-03-21T07:02:39.914Z,2.72
2023-03-21T07:04:42.876Z,3.03
2023-03-21T07:06:45.517Z,2.42
2023-03-21T07:08:48.524Z,2.90
2023-03-21T07:10:51.211Z,2.95
2023-03-21T07:12:55.425Z,2.75
2023-03-21T07:14:58.262Z,2.55
2023-03-21T07:17:01.349Z,2.58
2023-03-21T07:19:04.366Z,2.65
2023-03-21T07:21:07.812Z,2.63
2023-03-21T07:23:10.766Z,2.90
2023-03-21T07:25:13.720Z,2.83
2023-03-21T07:27:16.870Z,2.75
2023-03-21T07:29:23.169Z,2.30
2023-03-21T07:31:26.884Z,2.33
2023-03-21T07:33:29.577Z,2.30
2023-03-21T07:35:32.393Z,2.60
2023-03-21T07:37:37.553Z,2.67
2023-03-21T07:39:40.791Z,2.50
2023-03-21T07:41:43.449Z,2.30
2023-03-21T07:43:46.095Z,2.80
2023-03-21T07:45:50.082Z,2.70
2023-03-21T07:47:52.835Z,3.08
2023-03-21T07:49:55.457Z,2.67
2023-03-21T07:51:59.614Z,2.70
2023-03-21T07:54:02.736Z,2.65
2023-03-21T07:56:06.272Z,2.78
2023-03-21T07:58:08.942Z,3.28
2023-03-21T08:00:13.654Z,3.75
2023-03-21T08:02:18.525Z,3.40
2023-03-21T08:04:21.242Z,3.65
2023-03-21T08:06:24.151Z,3.00
2023-03-21T08:08:26.765Z,2.92
2023-03-21T08:10:29.580Z,3.17
2023-03-21T08:12:32.254Z,3.30
2023-03-21T08:14:34.901Z,2.72
2023-03-21T08:16:37.665Z,2.55
2023-03-21T08:18:42.775Z,3.00
2023-03-21T08:20:45.600Z,2.30
2023-03-21T08:22:48.848Z,3.78
2023-03-21T08:24:51.460Z,2.75
2023-03-21T08:26:54.078Z,3.50
2023-03-21T08:28:56.669Z,4.32
2023-03-21T08:30:59.323Z,2.67
2023-03-21T08:33:02.417Z,2.95
2023-03-21T08:35:10.030Z,4.63
2023-03-21T08:37:12.746Z,2.65
2023-03-21T08:39:15.393Z,2.55
2023-03-21T08:41:19.252Z,2.20
2023-03-21T08:43:21.927Z,2.33
2023-03-21T08:45:25.403Z,2.10
2023-03-21T08:47:28.045Z,2.42
2023-03-21T08:49:30.897Z,2.15
2023-03-21T08:51:37.522Z,1.80
2023-03-21T08:53:41.515Z,1.67
2023-03-21T08:55:45.463Z,2.00
2023-03-21T08:57:48.583Z,1.92
2023-03-21T08:59:51.386Z,3.15
2023-03-21T09:01:54.141Z,2.10
2023-03-21T09:03:56.777Z,2.47
2023-03-21T09:06:00.676Z,1.80
2023-03-21T09:08:05.943Z,2.08
2023-03-21T09:10:25.890Z,1.95
2023-03-21T09:12:28.599Z,2.17
2023-03-21T09:14:31.355Z,2.00
2023-03-21T09:16:34.649Z,2.58
2023-03-21T09:18:48.722Z,2.33
2023-03-21T09:20:51.812Z,2.80
2023-03-21T09:22:54.782Z,1.75
2023-03-21T09:24:59.303Z,1.90
2023-03-21T09:27:02.044Z,2.30
2023-03-21T09:29:05.904Z,2.40
2023-03-21T09:31:11.316Z,2.70
2023-03-21T09:33:25.390Z,1.90
2023-03-21T09:35:28.514Z,1.90
2023-03-21T09:37:32.635Z,1.60
2023-03-21T09:39:35.552Z,1.80
2023-03-21T09:41:58.851Z,1.33
2023-03-21T09:44:12.699Z,2.00
2023-03-21T09:46:25.869Z,1.90
2023-03-21T09:48:46.898Z,1.92
2023-03-21T09:50:53.819Z,1.85
2023-03-21T09:52:58.427Z,2.03
2023-03-21T09:55:01.389Z,1.70
2023-03-21T09:57:15.954Z,2.60
2023-03-21T09:59:26.268Z,1.80
2023-03-21T10:01:33.025Z,1.80
2023-03-21T10:03:36.675Z,2.15
2023-03-21T10:05:45.832Z,2.28
2023-03-21T10:07:54.308Z,2.08
2023-03-21T10:09:58.708Z,1.90
2023-03-21T10:12:04.320Z,2.10
2023-03-21T10:14:17.862Z,1.98
2023-03-21T10:16:27.645Z,1.80
2023-03-21T10:18:31.979Z,1.75
2023-03-21T10:20:37.193Z,2.17
2023-03-21T10:22:40.261Z,1.77
2023-03-21T10:24:42.972Z,1.85
2023-03-21T10:26:47.646Z,1.85
2023-03-21T10:28:53.413Z,1.90
2023-03-21T10:30:59.831Z,1.80
2023-03-21T10:33:06.002Z,1.80
2023-03-21T10:35:14.260Z,1.70
2023-03-21T10:37:17.602Z,2.05
2023-03-21T10:39:28.163Z,2.33
2023-03-21T10:41:30.898Z,1.70
2023-03-21T10:43:37.714Z,1.20
2023-03-21T10:45:40.948Z,1.30
2023-03-21T10:47:49.897Z,1.70
2023-03-21T10:50:09.898Z,1.30
2023-03-21T10:52:16.480Z,1.02
2023-03-21T10:54:21.296Z,1.33
2023-03-21T10:56:27.664Z,1.20
2023-03-21T11:00:41.187Z,1.00
2023-03-21T11:02:49.905Z,1.00
2023-03-21T11:04:54.346Z,1.10
2023-03-21T11:07:01.203Z,1.15
2023-03-21T11:09:09.616Z,1.15
2023-03-21T11:11:22.193Z,1.48
2023-03-21T11:13:27.094Z,1.40
2023-03-21T11:15:33.004Z,1.30
2023-03-21T11:17:36.672Z,1.40
2023-03-21T11:19:40.610Z,1.05
2023-03-21T11:21:44.243Z,1.33
2023-03-21T11:23:49.688Z,1.02
2023-03-21T11:25:52.958Z,1.02
2023-03-21T11:27:56.880Z,1.10
2023-03-21T11:30:02.791Z,0.70
2023-03-21T11:32:12.281Z,0.80
2023-03-21T11:34:27.377Z,0.70
2023-03-21T11:36:37.967Z,0.80
2023-03-21T11:38:41.138Z,0.63
2023-03-21T11:40:53.788Z,0.90
2023-03-21T11:42:58.063Z,0.80
2023-03-21T11:45:11.435Z,1.10
2023-03-21T11:47:14.185Z,1.02
2023-03-21T11:49:16.914Z,0.90
2023-03-21T11:51:28.029Z,0.82
2023-03-21T11:53:41.683Z,1.10
2023-03-21T11:56:01.977Z,0.90
2023-03-21T11:58:24.088Z,0.95
2023-03-21T12:00:32.923Z,0.90
2023-03-21T12:02:55.368Z,1.00
2023-03-21T12:05:05.104Z,0.98
2023-03-21T12:07:17.561Z,0.90
2023-03-21T12:11:44.222Z,0.90
2023-03-21T12:13:56.227Z,0.93
2023-03-21T12:16:11.801Z,0.90
2023-03-21T12:18:30.385Z,0.80
2023-03-21T12:20:44.798Z,1.00
2023-03-21T12:23:02.339Z,1.10
2023-03-21T12:25:12.105Z,1.00
2023-03-21T12:27:24.949Z,1.25
2023-03-21T12:29:41.781Z,0.90
2023-03-21T12:31:53.520Z,0.93
2023-03-21T12:34:11.144Z,0.90
2023-03-21T12:36:28.764Z,0.70
2023-03-21T12:38:41.488Z,1.00
2023-03-21T12:40:59.519Z,1.30
2023-03-21T12:43:34.151Z,0.95
2023-03-21T12:45:47.054Z,1.10
2023-03-21T12:47:56.062Z,1.00
2023-03-21T12:50:02.675Z,0.93
2023-03-21T12:54:17.442Z,0.85
2023-03-21T12:56:26.329Z,1.05
2023-03-21T12:58:32.183Z,1.00
2023-03-21T13:00:39.757Z,1.02
2023-03-21T13:02:45.821Z,1.25
2023-03-21T13:05:01.354Z,1.05
2023-03-21T13:07:09.584Z,1.02
2023-03-21T13:09:23.318Z,0.80
2023-03-21T13:11:33.218Z,1.00
2023-03-21T13:13:41.178Z,1.10
2023-03-21T13:15:53.781Z,1.10
2023-03-21T13:18:03.383Z,1.00
2023-03-21T13:20:19.160Z,1.05
2023-03-21T13:22:27.295Z,1.33
2023-03-21T13:24:39.408Z,1.30
2023-03-21T13:26:49.832Z,1.02
2023-03-21T13:28:53.316Z,1.05
2023-03-21T13:31:18.107Z,1.08
2023-03-21T13:33:25.885Z,1.10
2023-03-21T13:35:37.640Z,1.33
2023-03-21T13:37:42.999Z,1.33
2023-03-21T13:39:47.830Z,1.20
2023-03-21T13:41:53.188Z,1.17
2023-03-21T13:44:06.457Z,1.08
2023-03-21T13:46:11.283Z,1.10
2023-03-21T13:48:29.768Z,1.17
2023-03-21T13:50:50.661Z,0.80
2023-03-21T13:53:23.645Z,0.90
2023-03-21T13:55:30.651Z,0.90
2023-03-21T13:57:40.749Z,0.73
2023-03-21T13:59:45.605Z,0.90
2023-03-21T14:02:00.525Z,0.77
2023-03-21T14:04:16.032Z,0.70
2023-03-21T14:06:20.043Z,0.88
2023-03-21T14:08:36.524Z,0.77
2023-03-21T14:10:44.334Z,0.60
2023-03-21T14:12:49.427Z,0.63
2023-03-21T14:14:55.211Z,0.60
2023-03-21T14:16:58.952Z,0.63
2023-03-21T14:19:04.661Z,0.50
2023-03-21T14:21:09.389Z,0.63
2023-03-21T14:23:17.285Z,0.77
2023-03-21T14:25:21.877Z,0.85
2023-03-21T14:27:28.719Z,0.80
2023-03-21T14:29:35.265Z,1.00
2023-03-21T14:31:39.950Z,0.80
2023-03-21T14:33:46.641Z,0.93
2023-03-21T14:35:50.983Z,0.77
2023-03-21T14:37:53.681Z,0.90
2023-03-21T14:40:01.050Z,0.77
2023-03-21T14:42:06.529Z,1.00
2023-03-21T14:44:16.732Z,0.70
2023-03-21T14:46:22.042Z,0.82
2023-03-21T14:48:31.719Z,1.15
2023-03-21T14:50:39.711Z,1.00
2023-03-21T14:52:44.401Z,0.88
2023-03-21T14:54:48.865Z,1.55
2023-03-21T14:56:54.396Z,2.08
2023-03-21T14:58:57.478Z,2.55
2023-03-21T15:01:04.154Z,2.65
2023-03-21T15:03:08.479Z,2.20
2023-03-21T15:05:20.295Z,2.10
2023-03-21T15:07:28.733Z,2.20
2023-03-21T15:09:34.540Z,2.70
2023-03-21T15:11:39.076Z,1.90
2023-03-21T15:13:52.577Z,1.70
2023-03-21T15:15:55.586Z,2.13
2023-03-21T15:18:03.953Z,2.00
2023-03-21T15:20:11.716Z,2.10
2023-03-21T15:22:21.909Z,1.83
2023-03-21T15:24:29.433Z,1.85
2023-03-21T15:26:32.696Z,2.30
2023-03-21T15:28:36.309Z,2.50
2023-03-21T15:30:39.035Z,2.42
2023-03-21T15:32:41.721Z,2.50
2023-03-21T15:34:45.798Z,2.50
2023-03-21T15:36:56.137Z,2.63
2023-03-21T15:39:02.664Z,2.92
2023-03-21T15:43:19.715Z,1.95
2023-03-21T15:45:25.551Z,2.25
2023-03-21T15:47:42.202Z,2.30
2023-03-21T15:49:44.941Z,2.20
2023-03-21T15:51:53.558Z,2.20
2023-03-21T15:53:56.417Z,2.20
2023-03-21T15:56:01.849Z,2.10
2023-03-21T15:58:09.780Z,2.25
2023-03-21T16:00:22.881Z,2.00
2023-03-21T16:02:30.676Z,2.22
2023-03-21T16:04:33.343Z,1.77
2023-03-21T16:06:38.498Z,1.95
2023-03-21T16:08:47.623Z,1.92
2023-03-21T16:10:50.452Z,1.80
2023-03-21T16:12:53.185Z,2.00
2023-03-21T16:14:56.442Z,2.45
2023-03-21T16:16:59.552Z,1.95
2023-03-21T16:19:03.168Z,2.47
2023-03-21T16:21:06.053Z,1.95
2023-03-21T16:23:10.883Z,2.00
2023-03-21T16:25:15.369Z,2.25
2023-03-21T16:27:19.827Z,2.30
2023-03-21T16:29:22.560Z,1.98
2023-03-21T16:31:27.038Z,2.10
2023-03-21T16:33:29.651Z,2.30
2023-03-21T16:35:32.303Z,2.30
2023-03-21T16:37:34.928Z,2.22
2023-03-21T16:39:37.673Z,2.28
2023-03-21T16:41:41.771Z,2.50
2023-03-21T16:43:46.157Z,2.15
2023-03-21T16:45:48.901Z,2.40
2023-03-21T16:47:52.063Z,2.30
2023-03-21T16:49:55.669Z,2.60
2023-03-21T16:51:58.349Z,2.30
2023-03-21T16:54:01.541Z,2.33
2023-03-21T16:56:05.252Z,2.13
2023-03-21T16:58:09.371Z,2.40
2023-03-21T17:00:16.666Z,2.22
2023-03-21T17:02:19.327Z,2.50
2023-03-21T17:04:22.462Z,2.42
2023-03-21T17:06:27.476Z,2.28
2023-03-21T17:08:30.540Z,2.40
2023-03-21T17:10:33.958Z,2.40
2023-03-21T17:12:37.368Z,2.45
2023-03-21T17:14:41.984Z,2.42
2023-03-21T17:16:45.763Z,2.45
2023-03-21T17:18:49.131Z,2.47
2023-03-21T17:20:51.860Z,2.80
2023-03-21T17:22:54.502Z,2.30
2023-03-21T17:24:57.102Z,2.20
2023-03-21T17:27:01.305Z,2.35
2023-03-21T17:29:04.980Z,2.47
2023-03-21T17:31:14.051Z,2.55
2023-03-21T17:33:16.758Z,2.50
2023-03-21T17:35:20.051Z,2.50
2023-03-21T17:37:25.955Z,2.50
2023-03-21T17:39:28.890Z,2.47
2023-03-21T17:41:31.554Z,2.28
2023-03-21T17:43:34.182Z,2.83
2023-03-21T17:45:36.841Z,2.65
2023-03-21T17:47:41.543Z,2.15
2023-03-21T17:49:44.215Z,3.53
2023-03-21T17:51:47.023Z,2.53
2023-03-21T17:53:51.839Z,2.20
2023-03-21T17:55:54.599Z,2.10
2023-03-21T17:57:57.440Z,2.72
2023-03-21T18:00:00.394Z,2.38
2023-03-21T18:02:03.013Z,2.22
2023-03-21T18:04:07.211Z,2.55
2023-03-21T18:06:16.029Z,2.55
2023-03-21T18:08:18.678Z,2.17
2023-03-21T18:10:24.741Z,2.58
2023-03-21T18:12:27.607Z,2.38
2023-03-21T18:14:30.776Z,2.53
2023-03-21T18:16:33.524Z,2.65
2023-03-21T18:18:36.264Z,2.83
2023-03-21T18:20:51.638Z,2.30
2023-03-21T18:22:55.408Z,2.47
2023-03-21T18:24:58.893Z,3.10
2023-03-21T18:27:02.671Z,2.35
2023-03-21T18:31:28.247Z,2.72
2023-03-21T18:33:30.967Z,2.50
2023-03-21T18:35:33.608Z,2.50
2023-03-21T18:37:37.614Z,2.40
2023-03-21T18:39:40.785Z,2.50
2023-03-21T18:41:43.817Z,2.20
2023-03-21T18:44:06.092Z,3.03
2023-03-21T18:46:09.447Z,2.50
2023-03-21T18:48:13.240Z,2.55
2023-03-21T18:50:16.413Z,2.55
2023-03-21T18:52:19.228Z,2.58
2023-03-21T18:54:24.027Z,3.83
2023-03-21T18:57:20.071Z,3.58
2023-03-21T18:58:49.300Z,5.00
2023-03-21T19:00:53.449Z,3.35
2023-03-21T19:03:13.882Z,4.45
2023-03-21T19:05:22.576Z,3.92
2023-03-21T19:07:25.295Z,3.95
2023-03-21T19:09:32.151Z,3.78
2023-03-21T19:11:34.921Z,3.40
2023-03-21T19:13:37.767Z,3.92
2023-03-21T19:15:41.423Z,3.53
2023-03-21T19:20:07.676Z,3.30
2023-03-21T19:22:10.579Z,3.42
2023-03-21T19:24:27.099Z,3.40
2023-03-21T19:26:32.041Z,3.17
2023-03-21T19:28:34.700Z,12.20
2023-03-21T19:30:37.712Z,5.80
2023-03-21T19:32:40.686Z,3.85
2023-03-21T19:34:43.358Z,3.30
2023-03-21T19:36:51.447Z,3.67
2023-03-21T19:38:54.894Z,6.72
2023-03-21T19:41:00.032Z,3.67
2023-03-21T19:43:21.692Z,4.03
2023-03-21T19:45:26.707Z,4.20
2023-03-21T19:47:29.335Z,4.15
2023-03-21T19:50:00.748Z,3.92
2023-03-21T19:51:54.900Z,3.58
2023-03-21T19:53:57.794Z,3.40
2023-03-21T19:56:03.696Z,3.35
2023-03-21T19:58:08.029Z,3.53
2023-03-21T20:00:11.728Z,3.60
2023-03-21T20:02:34.567Z,3.70
2023-03-21T20:04:37.073Z,4.25
2023-03-21T20:06:39.760Z,3.05
2023-03-21T20:09:13.576Z,3.70
2023-03-21T20:11:05.680Z,3.88
2023-03-21T20:13:09.662Z,3.20
2023-03-21T20:15:19.308Z,3.60
2023-03-21T20:17:23.648Z,4.82
2023-03-21T20:19:27.138Z,6.28
2023-03-21T20:21:36.570Z,5.80
2023-03-21T20:23:49.352Z,6.38
2023-03-21T20:25:52.048Z,6.03
2023-03-21T20:28:12.646Z,6.25
2023-03-21T20:30:20.017Z,6.43
2023-03-21T20:32:22.698Z,5.10
2023-03-21T20:34:25.489Z,5.13
2023-03-21T20:36:43.887Z,5.97
2023-03-21T20:38:46.992Z,5.50
2023-03-21T20:40:49.655Z,5.50
2023-03-21T20:42:52.633Z,6.75
2023-03-21T20:45:00.587Z,7.93
2023-03-21T20:47:06.322Z,7.00
2023-03-21T20:49:08.939Z,6.53
2023-03-21T20:53:36.545Z,6.85
2023-03-21T20:55:39.629Z,5.70
2023-03-21T20:57:42.745Z,6.20
2023-03-21T20:59:46.000Z,5.68
2023-03-21T21:01:48.816Z,5.25
2023-03-21T21:03:54.258Z,5.78
2023-03-21T21:05:56.917Z,4.82
2023-03-21T21:07:59.654Z,5.38
2023-03-21T21:10:02.269Z,4.40
2023-03-21T21:12:07.411Z,4.95
2023-03-21T21:14:10.708Z,3.38
2023-03-21T21:16:14.153Z,5.03
2023-03-21T21:18:16.829Z,4.03
2023-03-21T21:20:20.934Z,4.50
2023-03-21T21:22:23.573Z,3.70
2023-03-21T21:24:26.212Z,3.83
2023-03-21T21:26:29.046Z,3.35
2023-03-21T21:28:32.136Z,3.55
2023-03-21T21:30:38.398Z,3.90
2023-03-21T21:32:41.883Z,3.45
2023-03-21T21:34:44.741Z,3.50
2023-03-21T21:36:49.622Z,4.13
2023-03-21T21:38:52.975Z,4.10
2023-03-21T21:41:00.206Z,4.47
2023-03-21T21:43:03.744Z,4.55
2023-03-21T21:45:08.551Z,4.55
2023-03-21T21:47:11.241Z,4.47
2023-03-21T21:49:13.896Z,4.88
2023-03-21T21:51:18.001Z,4.00
2023-03-21T21:53:22.987Z,4.15
2023-03-21T21:55:25.704Z,3.85
2023-03-21T21:57:30.445Z,4.30
2023-03-21T21:59:33.932Z,3.90
2023-03-21T22:01:38.818Z,4.10
2023-03-21T22:03:42.247Z,3.90
2023-03-21T22:05:45.356Z,3.78
2023-03-21T22:07:48.183Z,4.03
2023-03-21T22:09:52.314Z,3.38
2023-03-21T22:11:56.614Z,3.25
2023-03-21T22:13:59.291Z,3.95
2023-03-21T22:16:02.057Z,6.22
2023-03-21T22:18:05.144Z,3.90
2023-03-21T22:20:09.830Z,3.20
2023-03-21T22:22:12.492Z,3.50
2023-03-21T22:24:15.167Z,2.83
2023-03-21T22:26:19.249Z,2.78
2023-03-21T22:28:25.525Z,2.65
2023-03-21T22:30:28.213Z,3.17
2023-03-21T22:32:31.110Z,2.83
2023-03-21T22:34:33.748Z,2.90
2023-03-21T22:36:36.389Z,2.85
2023-03-21T22:38:39.093Z,2.90
2023-03-21T22:40:42.216Z,3.17
2023-03-21T22:42:46.400Z,3.38
2023-03-21T22:44:49.070Z,3.10
2023-03-21T22:46:51.716Z,3.90
2023-03-21T22:48:54.382Z,3.08
2023-03-21T22:50:57.633Z,3.00
2023-03-21T22:53:00.317Z,2.90
2023-03-21T22:55:02.940Z,2.63
2023-03-21T22:57:06.344Z,2.50
2023-03-21T22:59:10.356Z,2.72
2023-03-21T23:01:13.047Z,2.88
2023-03-21T23:03:16.694Z,2.65
2023-03-21T23:05:19.792Z,2.30
2023-03-21T23:07:22.428Z,2.70
2023-03-21T23:09:25.590Z,2.30
2023-03-21T23:11:28.218Z,2.65
2023-03-21T23:13:31.498Z,2.60
2023-03-21T23:15:35.712Z,2.50
2023-03-21T23:17:39.225Z,2.72
2023-03-21T23:19:41.801Z,2.13
2023-03-21T23:21:44.794Z,2.70
2023-03-21T23:23:49.718Z,2.47
2023-03-21T23:25:52.702Z,2.20
2023-03-21T23:27:55.864Z,2.58
2023-03-21T23:29:58.531Z,2.50
2023-03-21T23:32:02.512Z,2.33
2023-03-21T23:34:06.057Z,2.58
2023-03-21T23:36:10.764Z,2.63
2023-03-21T23:38:13.401Z,2.55
2023-03-21T23:40:16.023Z,2.65
2023-03-21T23:42:18.873Z,2.22
2023-03-21T23:44:21.481Z,2.47
2023-03-21T23:46:24.115Z,2.35
2023-03-21T23:48:28.844Z,2.05
2023-03-21T23:50:31.430Z,2.50
2023-03-21T23:52:34.398Z,2.60
2023-03-21T23:54:37.278Z,2.40
2023-03-21T23:56:39.960Z,2.30
2023-03-21T23:58:42.619Z,2.35
